Kaiho 2 — JD3759 — position and weather

sailwx.info

Track history (hours):
 
Tides and Currents Weather Stations Pressure Air Temp Water Temp Dewpoint Dewpoint Depression Visibility Wind Speed Wind Dir Waves Ship Positions

Kaiho 2

Last reported at 2017-Dec-09 15:50 UTC. Time now 2017-Dec-14 00:28 UTC.
Position N 33°44' E 134°45'.

Length 108 m; draft 4.9 m.

Type: Ship (hazmat cat D). MMSI: 431005885.

Date/timePositionNaut miles runAvg speedWind from/ knotsBaromVisibWave heightAir tempDewpointWater temp
2017-Dec-09 15:50N 33°44' E 134°45'619.0
2017-Dec-09 15:31N 33°49' E 134°50'1918.7
2017-Dec-09 14:29N 34°07' E 134°56'919.1
2017-Dec-09 14:00N 34°17' E 134°58'917.6
2017-Dec-09 13:31N 34°24' E 135°03'1019.1
2017-Dec-09 13:00N 34°31' E 135°12'918.3
2017-Dec-09 12:31N 34°37' E 135°20'510.8
2017-Dec-09 12:00N 34°38' E 135°27'1 1.0
2017-Dec-09 11:28N 34°38' E 135°26'0 0.0
2017-Dec-09 10:58N 34°38' E 135°26'0 0.0
2017-Dec-09 10:28N 34°38' E 135°26'0 0.0
2017-Dec-09 09:58N 34°38' E 135°26'0 0.0
2017-Dec-09 09:28N 34°38' E 135°26'0 0.0
2017-Dec-09 08:58N 34°38' E 135°26'0 0.0
2017-Dec-09 08:28N 34°38' E 135°26'0 0.0
2017-Dec-09 08:00N 34°38' E 135°26'0 0.0
2017-Dec-09 07:30N 34°38' E 135°26'0 0.0
2017-Dec-09 07:00N 34°38' E 135°26'0 0.0
2017-Dec-09 06:30N 34°38' E 135°26'0 0.0
2017-Dec-09 06:00N 34°38' E 135°26'0 0.0
2017-Dec-09 05:30N 34°38' E 135°26'0 0.0
2017-Dec-09 05:00N 34°38' E 135°26'0 0.0
2017-Dec-09 04:30N 34°38' E 135°26'0 0.0
2017-Dec-09 04:00N 34°38' E 135°26'0 0.0
2017-Dec-09 03:30N 34°38' E 135°26'0 0.0
2017-Dec-09 03:01N 34°38' E 135°26'0 0.0
2017-Dec-09 02:31N 34°38' E 135°26'0 0.0
2017-Dec-09 02:00N 34°38' E 135°26'0 0.0
2017-Dec-09 01:31N 34°38' E 135°26'0 0.0
2017-Dec-09 01:00N 34°38' E 135°26'0 0.0
2017-Dec-09 00:30N 34°38' E 135°26'0 0.0
2017-Dec-09 00:00N 34°38' E 135°26'0 0.1
2017-Dec-08 23:30N 34°38' E 135°26'0 0.9
2017-Dec-08 23:00N 34°38' E 135°27'2 4.4
2017-Dec-08 22:30N 34°38' E 135°24'5 9.3
2017-Dec-08 22:00N 34°35' E 135°20'816.6
2017-Dec-08 21:30N 34°29' E 135°13'816.0
2017-Dec-08 21:01N 34°24' E 135°06'917.3
2017-Dec-08 20:30N 34°17' E 134°59'917.3
2017-Dec-08 20:01N 34°09' E 134°57'918.6
2017-Dec-08 19:31N 33°59' E 134°56'1218.1
2017-Dec-08 18:52N 33°48' E 134°53'  
2017-Dec-04 10:23N 34°38' E 135°26'0 0.0
2017-Dec-04 09:59N 34°38' E 135°26'0 0.0
2017-Dec-04 09:29N 34°38' E 135°26'0 0.0
2017-Dec-04 08:59N 34°38' E 135°26'0 0.0
2017-Dec-04 08:26N 34°38' E 135°26'0 0.0
2017-Dec-04 07:59N 34°38' E 135°26'0 0.0
2017-Dec-04 07:29N 34°38' E 135°26'0 0.0
2017-Dec-04 06:59N 34°38' E 135°26'0 0.0
2017-Dec-04 06:29N 34°38' E 135°26'0 0.0
2017-Dec-04 05:59N 34°38' E 135°26'0 0.0
2017-Dec-04 05:29N 34°38' E 135°26'0 0.0
2017-Dec-04 04:59N 34°38' E 135°26'0 0.0
2017-Dec-04 04:29N 34°38' E 135°26'0 0.0
2017-Dec-04 03:59N 34°38' E 135°26'0 0.0
2017-Dec-04 03:29N 34°38' E 135°26'0 0.0
2017-Dec-04 02:59N 34°38' E 135°26'0 0.0
2017-Dec-04 02:29N 34°38' E 135°26'0 0.0
2017-Dec-04 01:59N 34°38' E 135°26'0 0.0
2017-Dec-04 01:29N 34°38' E 135°26'0 0.0
2017-Dec-04 00:59N 34°38' E 135°26'0 0.0
2017-Dec-04 00:29N 34°38' E 135°26'0 0.0
2017-Dec-03 23:59N 34°38' E 135°26'0 0.0
2017-Dec-03 23:29N 34°38' E 135°26'0 0.6
2017-Dec-03 23:00N 34°38' E 135°27'4 7.5
2017-Dec-03 22:31N 34°37' E 135°22'714.1
2017-Dec-03 22:00N 34°32' E 135°16'815.8
2017-Dec-03 21:30N 34°27' E 135°09'816.3
2017-Dec-03 21:00N 34°21' E 135°03'917.6
2017-Dec-03 20:31N 34°13' E 134°58'816.8
2017-Dec-03 20:01N 34°05' E 134°55'917.6
2017-Dec-03 19:30N 33°56' E 134°54'  
2017-Nov-30 14:12N 33°46' E 134°46'419.7
2017-Nov-30 13:59N 33°49' E 134°49'1219.4
2017-Nov-30 13:23N 34°00' E 134°53'819.6
2017-Nov-30 12:57N 34°08' E 134°56'920.0
2017-Nov-30 12:30N 34°17' E 134°58'918.9
2017-Nov-30 12:00N 34°25' E 135°04'1019.1
2017-Nov-30 11:30N 34°31' E 135°13'918.2
2017-Nov-30 11:00N 34°37' E 135°21'4 8.8
2017-Nov-30 10:31N 34°38' E 135°27'0 0.4
2017-Nov-30 10:00N 34°38' E 135°26'0 0.0
2017-Nov-30 09:27N 34°38' E 135°26'0 0.0
2017-Nov-30 09:00N 34°38' E 135°26'0 0.0
2017-Nov-30 08:27N 34°38' E 135°26'0 0.0
2017-Nov-30 08:00N 34°38' E 135°26'0 0.0
2017-Nov-30 07:27N 34°38' E 135°26'0 0.0
2017-Nov-30 07:00N 34°38' E 135°26'0 0.0
2017-Nov-30 06:30N 34°38' E 135°26'0 0.0
2017-Nov-30 05:57N 34°38' E 135°26'0 0.0
2017-Nov-30 05:30N 34°38' E 135°26'0 0.0
2017-Nov-30 05:00N 34°38' E 135°26'0 0.0
2017-Nov-30 04:27N 34°38' E 135°26'0 0.0
2017-Nov-30 03:57N 34°38' E 135°26'0 0.0
2017-Nov-30 03:27N 34°38' E 135°26'0 0.0
2017-Nov-30 03:00N 34°38' E 135°26'0 0.0
2017-Nov-30 02:30N 34°38' E 135°26'0 0.0
2017-Nov-30 02:00N 34°38' E 135°26'0 0.0
2017-Nov-30 01:30N 34°38' E 135°26'0 0.0
2017-Nov-30 01:00N 34°38' E 135°26'0 0.0
2017-Nov-30 00:30N 34°38' E 135°26'0 0.0
2017-Nov-30 00:00N 34°38' E 135°26'0 0.0
2017-Nov-29 23:27N 34°38' E 135°26'0 0.0
2017-Nov-29 22:57N 34°38' E 135°26'0 0.0
2017-Nov-29 22:30N 34°38' E 135°26'0 0.0
2017-Nov-29 22:00N 34°38' E 135°26'0 0.0
2017-Nov-29 21:30N 34°38' E 135°26'0 0.0
2017-Nov-29 21:00N 34°38' E 135°26'0 0.0
2017-Nov-29 20:30N 34°38' E 135°26'0 0.0
2017-Nov-29 19:51N 34°38' E 135°26'0 0.0
2017-Nov-29 19:30N 34°38' E 135°26'0 0.0
2017-Nov-29 19:00N 34°38' E 135°26'0 0.0
2017-Nov-29 18:30N 34°38' E 135°26'0 0.0
2017-Nov-29 17:57N 34°38' E 135°26'0 0.0
2017-Nov-29 17:30N 34°38' E 135°26'0 0.0
2017-Nov-29 17:00N 34°38' E 135°26'0 0.0
2017-Nov-29 16:30N 34°38' E 135°26'0 0.0
2017-Nov-29 15:57N 34°38' E 135°26'  
Track history (hours):
 
Tides and Currents Weather Stations Pressure Air Temp Water Temp Dewpoint Dewpoint Depression Visibility Wind Speed Wind Dir Waves Ship Positions

Kaiho 2

Last reported at 2017-Dec-09 15:50 UTC. Time now 2017-Dec-14 00:28 UTC.
Position N 33°44' E 134°45'.

Length 108 m; draft 4.9 m.

Type: Ship (hazmat cat D). MMSI: 431005885.

Date/timePositionNaut miles runAvg speedWind from/ knotsBaromVisibWave heightAir tempDewpointWater temp
2017-Dec-09 15:50N 33°44' E 134°45'619.0
2017-Dec-09 15:31N 33°49' E 134°50'1918.7
2017-Dec-09 14:29N 34°07' E 134°56'919.1
2017-Dec-09 14:00N 34°17' E 134°58'917.6
2017-Dec-09 13:31N 34°24' E 135°03'1019.1
2017-Dec-09 13:00N 34°31' E 135°12'918.3
2017-Dec-09 12:31N 34°37' E 135°20'510.8
2017-Dec-09 12:00N 34°38' E 135°27'1 1.0
2017-Dec-09 11:28N 34°38' E 135°26'0 0.0
2017-Dec-09 10:58N 34°38' E 135°26'0 0.0
2017-Dec-09 10:28N 34°38' E 135°26'0 0.0
2017-Dec-09 09:58N 34°38' E 135°26'0 0.0
2017-Dec-09 09:28N 34°38' E 135°26'0 0.0
2017-Dec-09 08:58N 34°38' E 135°26'0 0.0
2017-Dec-09 08:28N 34°38' E 135°26'0 0.0
2017-Dec-09 08:00N 34°38' E 135°26'0 0.0
2017-Dec-09 07:30N 34°38' E 135°26'0 0.0
2017-Dec-09 07:00N 34°38' E 135°26'0 0.0
2017-Dec-09 06:30N 34°38' E 135°26'0 0.0
2017-Dec-09 06:00N 34°38' E 135°26'0 0.0
2017-Dec-09 05:30N 34°38' E 135°26'0 0.0
2017-Dec-09 05:00N 34°38' E 135°26'0 0.0
2017-Dec-09 04:30N 34°38' E 135°26'0 0.0
2017-Dec-09 04:00N 34°38' E 135°26'0 0.0
2017-Dec-09 03:30N 34°38' E 135°26'0 0.0
2017-Dec-09 03:01N 34°38' E 135°26'0 0.0
2017-Dec-09 02:31N 34°38' E 135°26'0 0.0
2017-Dec-09 02:00N 34°38' E 135°26'0 0.0
2017-Dec-09 01:31N 34°38' E 135°26'0 0.0
2017-Dec-09 01:00N 34°38' E 135°26'0 0.0
2017-Dec-09 00:30N 34°38' E 135°26'0 0.0
2017-Dec-09 00:00N 34°38' E 135°26'0 0.1
2017-Dec-08 23:30N 34°38' E 135°26'0 0.9
2017-Dec-08 23:00N 34°38' E 135°27'2 4.4
2017-Dec-08 22:30N 34°38' E 135°24'5 9.3
2017-Dec-08 22:00N 34°35' E 135°20'816.6
2017-Dec-08 21:30N 34°29' E 135°13'816.0
2017-Dec-08 21:01N 34°24' E 135°06'917.3
2017-Dec-08 20:30N 34°17' E 134°59'917.3
2017-Dec-08 20:01N 34°09' E 134°57'918.6
2017-Dec-08 19:31N 33°59' E 134°56'1218.1
2017-Dec-08 18:52N 33°48' E 134°53'  
2017-Dec-04 10:23N 34°38' E 135°26'0 0.0
2017-Dec-04 09:59N 34°38' E 135°26'0 0.0
2017-Dec-04 09:29N 34°38' E 135°26'0 0.0
2017-Dec-04 08:59N 34°38' E 135°26'0 0.0
2017-Dec-04 08:26N 34°38' E 135°26'0 0.0
2017-Dec-04 07:59N 34°38' E 135°26'0 0.0
2017-Dec-04 07:29N 34°38' E 135°26'0 0.0
2017-Dec-04 06:59N 34°38' E 135°26'0 0.0
2017-Dec-04 06:29N 34°38' E 135°26'0 0.0
2017-Dec-04 05:59N 34°38' E 135°26'0 0.0
2017-Dec-04 05:29N 34°38' E 135°26'0 0.0
2017-Dec-04 04:59N 34°38' E 135°26'0 0.0
2017-Dec-04 04:29N 34°38' E 135°26'0 0.0
2017-Dec-04 03:59N 34°38' E 135°26'0 0.0
2017-Dec-04 03:29N 34°38' E 135°26'0 0.0
2017-Dec-04 02:59N 34°38' E 135°26'0 0.0
2017-Dec-04 02:29N 34°38' E 135°26'0 0.0
2017-Dec-04 01:59N 34°38' E 135°26'0 0.0
2017-Dec-04 01:29N 34°38' E 135°26'0 0.0
2017-Dec-04 00:59N 34°38' E 135°26'0 0.0
2017-Dec-04 00:29N 34°38' E 135°26'0 0.0
2017-Dec-03 23:59N 34°38' E 135°26'0 0.0
2017-Dec-03 23:29N 34°38' E 135°26'0 0.6
2017-Dec-03 23:00N 34°38' E 135°27'4 7.5
2017-Dec-03 22:31N 34°37' E 135°22'714.1
2017-Dec-03 22:00N 34°32' E 135°16'815.8
2017-Dec-03 21:30N 34°27' E 135°09'816.3
2017-Dec-03 21:00N 34°21' E 135°03'917.6
2017-Dec-03 20:31N 34°13' E 134°58'816.8
2017-Dec-03 20:01N 34°05' E 134°55'917.6
2017-Dec-03 19:30N 33°56' E 134°54'  
2017-Nov-30 14:12N 33°46' E 134°46'419.7
2017-Nov-30 13:59N 33°49' E 134°49'1219.4
2017-Nov-30 13:23N 34°00' E 134°53'819.6
2017-Nov-30 12:57N 34°08' E 134°56'920.0
2017-Nov-30 12:30N 34°17' E 134°58'918.9
2017-Nov-30 12:00N 34°25' E 135°04'1019.1
2017-Nov-30 11:30N 34°31' E 135°13'918.2
2017-Nov-30 11:00N 34°37' E 135°21'4 8.8
2017-Nov-30 10:31N 34°38' E 135°27'0 0.4
2017-Nov-30 10:00N 34°38' E 135°26'0 0.0
2017-Nov-30 09:27N 34°38' E 135°26'0 0.0
2017-Nov-30 09:00N 34°38' E 135°26'0 0.0
2017-Nov-30 08:27N 34°38' E 135°26'0 0.0
2017-Nov-30 08:00N 34°38' E 135°26'0 0.0
2017-Nov-30 07:27N 34°38' E 135°26'0 0.0
2017-Nov-30 07:00N 34°38' E 135°26'0 0.0
2017-Nov-30 06:30N 34°38' E 135°26'0 0.0
2017-Nov-30 05:57N 34°38' E 135°26'0 0.0
2017-Nov-30 05:30N 34°38' E 135°26'0 0.0
2017-Nov-30 05:00N 34°38' E 135°26'0 0.0
2017-Nov-30 04:27N 34°38' E 135°26'0 0.0
2017-Nov-30 03:57N 34°38' E 135°26'0 0.0
2017-Nov-30 03:27N 34°38' E 135°26'0 0.0
2017-Nov-30 03:00N 34°38' E 135°26'0 0.0
2017-Nov-30 02:30N 34°38' E 135°26'0 0.0
2017-Nov-30 02:00N 34°38' E 135°26'0 0.0
2017-Nov-30 01:30N 34°38' E 135°26'0 0.0
2017-Nov-30 01:00N 34°38' E 135°26'0 0.0
2017-Nov-30 00:30N 34°38' E 135°26'0 0.0
2017-Nov-30 00:00N 34°38' E 135°26'0 0.0
2017-Nov-29 23:27N 34°38' E 135°26'0 0.0
2017-Nov-29 22:57N 34°38' E 135°26'0 0.0
2017-Nov-29 22:30N 34°38' E 135°26'0 0.0
2017-Nov-29 22:00N 34°38' E 135°26'0 0.0
2017-Nov-29 21:30N 34°38' E 135°26'0 0.0
2017-Nov-29 21:00N 34°38' E 135°26'0 0.0
2017-Nov-29 20:30N 34°38' E 135°26'0 0.0
2017-Nov-29 19:51N 34°38' E 135°26'0 0.0
2017-Nov-29 19:30N 34°38' E 135°26'0 0.0
2017-Nov-29 19:00N 34°38' E 135°26'0 0.0
2017-Nov-29 18:30N 34°38' E 135°26'0 0.0
2017-Nov-29 17:57N 34°38' E 135°26'0 0.0
2017-Nov-29 17:30N 34°38' E 135°26'0 0.0
2017-Nov-29 17:00N 34°38' E 135°26'0 0.0
2017-Nov-29 16:30N 34°38' E 135°26'0 0.0
2017-Nov-29 15:57N 34°38' E 135°26'  

Dump ship's entire track history